createdAt,value
2023-01-13T00:02:33.309Z,98692.38
2023-01-13T00:05:22.008Z,98701.03
2023-01-13T00:08:08.476Z,98695.00
2023-01-13T00:10:55.041Z,98686.44
2023-01-13T00:13:41.711Z,98671.81
2023-01-13T00:16:28.111Z,98684.69
2023-01-13T00:19:14.610Z,98683.81
2023-01-13T00:22:00.847Z,98682.16
2023-01-13T00:24:47.415Z,98689.91
2023-01-13T00:27:33.795Z,98683.84
2023-01-13T00:30:20.982Z,98683.00
2023-01-13T00:33:07.415Z,98678.69
2023-01-13T00:36:01.309Z,98682.16
2023-01-13T00:38:48.634Z,98672.69
2023-01-13T00:41:54.977Z,98673.59
2023-01-13T00:44:41.525Z,98678.69
2023-01-13T00:47:27.800Z,98670.13
2023-01-13T00:50:14.443Z,98661.53
2023-01-13T00:53:01.361Z,98663.25
2023-01-13T00:55:47.807Z,98655.50
2023-01-13T00:58:35.910Z,98659.78
2023-01-13T01:01:23.798Z,98654.56
2023-01-13T01:04:11.123Z,98649.38
2023-01-13T01:06:57.722Z,98649.38
2023-01-13T01:09:44.327Z,98631.31
2023-01-13T01:12:30.646Z,98639.00
2023-01-13T01:15:21.550Z,98638.16
2023-01-13T01:18:08.277Z,98640.75
2023-01-13T01:20:54.486Z,98638.09
2023-01-13T01:23:42.063Z,98638.09
2023-01-13T01:26:30.264Z,98656.16
2023-01-13T01:29:16.747Z,98650.94
2023-01-13T01:32:03.485Z,98642.34
2023-01-13T01:34:51.136Z,98644.97
2023-01-13T01:37:37.752Z,98645.81
2023-01-13T01:40:26.959Z,98638.88
2023-01-13T01:43:34.850Z,98645.84
2023-01-13T01:46:21.176Z,98645.81
2023-01-13T01:49:18.337Z,98637.19
2023-01-13T01:52:26.123Z,98636.44
2023-01-13T01:55:21.351Z,98635.53
2023-01-13T01:58:14.568Z,98639.81
2023-01-13T02:01:01.542Z,98633.72
2023-01-13T02:03:59.339Z,98644.03
2023-01-13T02:06:47.609Z,98627.72
2023-01-13T02:09:35.916Z,98628.59
2023-01-13T02:12:30.006Z,98636.28
2023-01-13T02:15:27.805Z,98629.38
2023-01-13T02:18:20.203Z,98620.75
2023-01-13T02:21:29.168Z,98627.69
2023-01-13T02:24:49.760Z,98626.84
2023-01-13T02:27:45.341Z,98613.88
2023-01-13T02:31:03.122Z,98613.03
2023-01-13T02:34:00.683Z,98611.34
2023-01-13T02:36:58.955Z,98594.94
2023-01-13T02:40:09.915Z,98605.31
2023-01-13T02:43:23.698Z,98605.34
2023-01-13T02:46:32.962Z,98595.91
2023-01-13T02:49:43.923Z,98590.75
2023-01-13T02:52:38.143Z,98588.22
2023-01-13T02:55:35.998Z,98591.63
2023-01-13T02:58:28.101Z,98589.09
2023-01-13T03:01:15.177Z,98587.38
2023-01-13T03:04:12.951Z,98596.00
2023-01-13T03:07:12.926Z,98587.44
2023-01-13T03:10:10.355Z,98584.00
2023-01-13T03:13:05.879Z,98584.00
2023-01-13T03:16:28.246Z,98575.38
2023-01-13T03:19:14.889Z,98575.34
2023-01-13T03:22:27.099Z,98568.50
2023-01-13T03:25:28.753Z,98571.91
2023-01-13T03:28:25.463Z,98568.50
2023-01-13T03:31:17.949Z,98563.34
2023-01-13T03:34:09.800Z,98549.53
2023-01-13T03:36:57.768Z,98565.84
2023-01-13T03:39:50.213Z,98541.75
2023-01-13T03:42:40.005Z,98553.84
2023-01-13T03:45:27.406Z,98551.25
2023-01-13T03:48:19.508Z,98538.31
2023-01-13T03:51:09.990Z,98543.50
2023-01-13T03:54:00.401Z,98545.22
2023-01-13T03:56:53.299Z,98549.50
2023-01-13T03:59:45.399Z,98549.53
2023-01-13T04:02:42.980Z,98530.56
2023-01-13T04:05:30.145Z,98540.06
2023-01-13T04:08:26.263Z,98517.72
2023-01-13T04:11:20.166Z,98536.59
2023-01-13T04:14:09.173Z,98524.56
2023-01-13T04:16:56.298Z,98526.25
2023-01-13T04:19:42.868Z,98520.25
2023-01-13T04:22:29.340Z,98517.63
2023-01-13T04:25:16.269Z,98500.44
2023-01-13T04:28:06.693Z,98510.78
2023-01-13T04:30:53.507Z,98514.13
2023-01-13T04:33:39.920Z,98508.13
2023-01-13T04:36:27.684Z,98509.88
2023-01-13T04:39:14.474Z,98510.69
2023-01-13T04:42:02.491Z,98515.00
2023-01-13T04:44:48.812Z,98509.78
2023-01-13T04:47:34.996Z,98499.47
2023-01-13T04:50:22.757Z,98500.28
2023-01-13T04:53:09.605Z,98487.34
2023-01-13T04:55:56.245Z,98497.78
2023-01-13T04:58:42.760Z,98491.72
2023-01-13T05:01:29.312Z,98490.00
2023-01-13T05:04:17.114Z,98506.28
2023-01-13T05:07:03.879Z,98507.13
2023-01-13T05:09:50.495Z,98513.19
2023-01-13T05:12:55.302Z,98513.19
2023-01-13T05:16:01.872Z,98514.06
2023-01-13T05:18:48.811Z,98513.25
2023-01-13T05:21:53.967Z,98508.88
2023-01-13T05:24:59.505Z,98504.56
2023-01-13T05:27:45.993Z,98496.81
2023-01-13T05:30:37.065Z,98504.56
2023-01-13T05:33:23.726Z,98504.53
2023-01-13T05:36:10.429Z,98502.00
2023-01-13T05:38:57.034Z,98482.22
2023-01-13T05:42:02.267Z,98497.69
2023-01-13T05:44:48.694Z,98494.16
2023-01-13T05:47:35.292Z,98503.69
2023-01-13T05:50:21.660Z,98508.81
2023-01-13T05:53:08.464Z,98501.97
2023-01-13T05:55:55.065Z,98509.69
2023-01-13T05:58:41.361Z,98508.00
2023-01-13T06:01:27.840Z,98495.88
2023-01-13T06:04:14.587Z,98503.69
2023-01-13T06:07:01.343Z,98495.06
2023-01-13T06:09:48.009Z,98504.50
2023-01-13T06:12:34.797Z,98490.72
2023-01-13T06:15:22.878Z,98501.06
2023-01-13T06:18:09.560Z,98509.69
2023-01-13T06:20:56.589Z,98503.66
2023-01-13T06:23:42.836Z,98495.91
2023-01-13T06:26:34.121Z,98493.25
2023-01-13T06:29:20.784Z,98501.03
2023-01-13T06:32:29.380Z,98500.19
2023-01-13T06:35:25.454Z,98494.13
2023-01-13T06:38:15.764Z,98477.81
2023-01-13T06:41:02.713Z,98489.03
2023-01-13T06:43:49.428Z,98485.53
2023-01-13T06:46:36.284Z,98486.47
2023-01-13T06:49:22.838Z,98483.81
2023-01-13T06:52:09.537Z,98483.72
2023-01-13T06:54:57.548Z,98492.50
2023-01-13T06:57:55.767Z,98478.69
2023-01-13T07:00:49.771Z,98484.72
2023-01-13T07:03:36.331Z,98479.53
2023-01-13T07:06:22.720Z,98478.66
2023-01-13T07:09:09.414Z,98479.47
2023-01-13T07:11:55.829Z,98488.94
2023-01-13T07:15:00.843Z,98500.16
2023-01-13T07:17:47.687Z,98494.03
2023-01-13T07:20:33.996Z,98483.84
2023-01-13T07:23:20.590Z,98478.69
2023-01-13T07:26:09.202Z,98499.31
2023-01-13T07:28:55.550Z,98504.41
2023-01-13T07:31:42.217Z,98500.13
2023-01-13T07:34:28.959Z,98491.50
2023-01-13T07:37:15.656Z,98489.69
2023-01-13T07:40:03.204Z,98495.78
2023-01-13T07:43:08.029Z,98493.16
2023-01-13T07:46:07.293Z,98496.56
2023-01-13T07:48:53.641Z,98500.03
2023-01-13T07:51:40.334Z,98497.53
2023-01-13T07:54:39.714Z,98504.34
2023-01-13T07:57:26.896Z,98503.53
2023-01-13T08:00:14.390Z,98525.06
2023-01-13T08:03:01.228Z,98531.06
2023-01-13T08:05:48.417Z,98535.53
2023-01-13T08:08:35.275Z,98532.19
2023-01-13T08:11:23.577Z,98546.09
2023-01-13T08:14:09.986Z,98551.25
2023-01-13T08:16:56.713Z,98559.00
2023-01-13T08:19:43.425Z,98581.44
2023-01-13T08:22:31.082Z,98577.13
2023-01-13T08:25:23.773Z,98554.03
2023-01-13T08:28:10.342Z,98615.13
2023-01-13T08:31:00.343Z,98610.06
2023-01-13T08:33:47.049Z,98612.75
2023-01-13T08:36:33.544Z,98629.16
2023-01-13T08:39:20.213Z,98654.13
2023-01-13T08:42:06.651Z,98680.75
2023-01-13T08:44:54.839Z,98689.28
2023-01-13T08:47:42.749Z,98689.25
2023-01-13T08:50:30.853Z,98688.38
2023-01-13T08:53:18.742Z,98691.75
2023-01-13T08:56:13.201Z,98693.47
2023-01-13T08:59:00.699Z,98696.88
2023-01-13T09:01:47.263Z,98684.00
2023-01-13T09:04:34.076Z,98696.00
2023-01-13T09:07:21.039Z,98693.44
2023-01-13T09:10:08.522Z,98697.69
2023-01-13T09:13:13.151Z,98695.94
2023-01-13T09:15:59.714Z,98702.78
2023-01-13T09:18:46.162Z,98699.38
2023-01-13T09:21:32.848Z,98707.06
2023-01-13T09:24:20.486Z,98716.56
2023-01-13T09:27:06.791Z,98694.25
2023-01-13T09:29:53.295Z,98711.53
2023-01-13T09:32:41.056Z,98699.59
2023-01-13T09:35:27.527Z,98697.91
2023-01-13T09:38:14.101Z,98706.56
2023-01-13T09:41:00.889Z,98714.28
2023-01-13T09:43:55.626Z,98726.38
2023-01-13T09:46:49.563Z,98721.22
2023-01-13T09:49:39.990Z,98720.38
2023-01-13T09:52:27.773Z,98735.84
2023-01-13T09:55:30.245Z,98736.72
2023-01-13T09:58:18.564Z,98738.44
2023-01-13T10:01:59.333Z,98733.25
2023-01-13T10:05:22.117Z,98735.84
2023-01-13T10:08:12.641Z,98754.78
2023-01-13T10:11:22.291Z,98754.78
2023-01-13T10:14:18.087Z,98756.47
2023-01-13T10:17:11.879Z,98751.34
2023-01-13T10:20:16.823Z,98734.97
2023-01-13T10:23:41.990Z,98729.81
2023-01-13T10:26:40.378Z,98745.31
2023-01-13T10:29:29.605Z,98742.72
2023-01-13T10:32:16.221Z,98747.88
2023-01-13T10:35:02.788Z,98749.59
2023-01-13T10:37:57.636Z,98746.16
2023-01-13T10:40:49.867Z,98750.47
2023-01-13T10:43:36.026Z,98747.91
2023-01-13T10:46:22.552Z,98730.69
2023-01-13T10:49:27.858Z,98763.38
2023-01-13T10:52:31.806Z,98756.50
2023-01-13T10:55:30.599Z,98747.03
2023-01-13T10:58:21.609Z,98740.16
2023-01-13T11:01:27.166Z,98740.16
2023-01-13T11:04:42.551Z,98749.63
2023-01-13T11:07:34.105Z,98742.72
2023-01-13T11:10:33.304Z,98734.97
2023-01-13T11:13:28.303Z,98746.16
2023-01-13T11:16:18.068Z,98741.81
2023-01-13T11:19:12.994Z,98746.09
2023-01-13T11:22:06.262Z,98753.00
2023-01-13T11:24:56.338Z,98760.75
2023-01-13T11:27:59.675Z,98771.09
2023-01-13T11:30:56.516Z,98771.06
2023-01-13T11:33:43.147Z,98775.34
2023-01-13T11:36:38.661Z,98767.59
2023-01-13T11:39:43.076Z,98777.13
2023-01-13T11:42:46.925Z,98759.94
2023-01-13T11:45:56.285Z,98763.38
2023-01-13T11:48:43.504Z,98769.41
2023-01-13T11:51:38.490Z,98756.47
2023-01-13T11:54:43.740Z,98751.28
2023-01-13T11:57:45.893Z,98751.31
2023-01-13T12:01:03.223Z,98745.28
2023-01-13T12:04:21.455Z,98741.88
2023-01-13T12:07:34.558Z,98757.34
2023-01-13T12:10:54.677Z,98766.78
2023-01-13T12:14:02.892Z,98770.16
2023-01-13T12:16:50.993Z,98762.41
2023-01-13T12:19:37.584Z,98773.47
2023-01-13T12:22:29.867Z,98764.78
2023-01-13T12:25:22.015Z,98768.28
2023-01-13T12:28:20.145Z,98770.00
2023-01-13T12:31:09.468Z,98791.50
2023-01-13T12:34:24.767Z,98788.88
2023-01-13T12:37:43.067Z,98816.44
2023-01-13T12:40:47.013Z,98815.00
2023-01-13T12:43:52.762Z,98822.66
2023-01-13T12:46:53.185Z,98837.19
2023-01-13T12:49:39.524Z,98820.78
2023-01-13T12:52:26.399Z,98828.44
2023-01-13T12:55:16.219Z,98834.34
2023-01-13T12:58:11.023Z,98828.22
2023-01-13T13:01:01.291Z,98813.66
2023-01-13T13:04:09.843Z,98812.88
2023-01-13T13:07:13.021Z,98795.84
2023-01-13T13:10:05.087Z,98799.31
2023-01-13T13:13:13.333Z,98806.25
2023-01-13T13:16:25.460Z,98802.06
2023-01-13T13:19:18.032Z,98800.38
2023-01-13T13:22:14.098Z,98796.94
2023-01-13T13:25:03.450Z,98798.66
2023-01-13T13:28:03.206Z,98794.38
2023-01-13T13:31:02.913Z,98806.38
2023-01-13T13:34:21.825Z,98809.00
2023-01-13T13:37:21.698Z,98808.97
2023-01-13T13:40:30.161Z,98808.97
2023-01-13T13:43:36.390Z,98813.25
2023-01-13T13:46:47.084Z,98831.38
2023-01-13T13:49:39.708Z,98843.44
2023-01-13T13:52:43.269Z,98871.81
2023-01-13T13:55:30.183Z,98884.63
2023-01-13T13:58:18.137Z,98877.66
2023-01-13T14:01:05.447Z,98884.53
2023-01-13T14:04:25.672Z,98904.34
2023-01-13T14:07:23.351Z,98913.00
2023-01-13T14:10:22.193Z,98910.34
2023-01-13T14:13:17.712Z,98907.69
2023-01-13T14:16:13.963Z,98903.31
2023-01-13T14:19:00.585Z,98898.97
2023-01-13T14:21:48.238Z,98896.38
2023-01-13T14:24:46.684Z,98902.41
2023-01-13T14:27:34.391Z,98912.81
2023-01-13T14:30:24.414Z,98919.81
2023-01-13T14:33:16.466Z,98913.88
2023-01-13T14:36:22.445Z,98924.22
2023-01-13T14:39:10.412Z,98926.81
2023-01-13T14:41:57.076Z,98932.84
2023-01-13T14:45:02.639Z,98942.28
2023-01-13T14:47:53.702Z,98944.84
2023-01-13T14:50:40.150Z,98953.47
2023-01-13T14:53:39.665Z,98950.84
2023-01-13T14:56:44.440Z,98936.09
2023-01-13T14:59:42.451Z,98960.13
2023-01-13T15:02:33.565Z,98970.28
2023-01-13T15:05:22.972Z,98974.47
2023-01-13T15:08:13.917Z,98967.53
2023-01-13T15:11:03.178Z,98976.88
2023-01-13T15:14:02.334Z,98964.72
2023-01-13T15:16:48.457Z,98968.16
2023-01-13T15:19:34.867Z,98987.00
2023-01-13T15:22:21.623Z,98985.19
2023-01-13T15:25:10.666Z,98998.03
2023-01-13T15:27:56.945Z,98993.69
2023-01-13T15:30:43.175Z,99001.41
2023-01-13T15:33:29.450Z,99012.56
2023-01-13T15:36:26.582Z,99012.44
2023-01-13T15:39:13.258Z,99015.94
2023-01-13T15:42:18.648Z,99016.97
2023-01-13T15:45:24.538Z,99034.09
2023-01-13T15:48:11.444Z,99015.03
2023-01-13T15:50:58.119Z,99058.97
2023-01-13T15:53:44.792Z,99047.81
2023-01-13T15:56:33.768Z,99057.91
2023-01-13T15:59:26.805Z,99062.78
2023-01-13T16:02:15.939Z,99055.78
2023-01-13T16:05:02.620Z,99054.13
2023-01-13T16:07:49.198Z,99063.50
2023-01-13T16:10:35.710Z,99057.25
2023-01-13T16:13:22.220Z,99062.28
2023-01-13T16:16:18.990Z,99067.13
2023-01-13T16:19:05.233Z,99077.28
2023-01-13T16:21:53.022Z,99081.53
2023-01-13T16:24:39.575Z,99080.41
2023-01-13T16:27:26.310Z,99077.06
2023-01-13T16:30:35.517Z,99089.69
2023-01-13T16:33:21.917Z,99080.88
2023-01-13T16:36:14.669Z,99079.91
2023-01-13T16:39:02.051Z,99089.25
2023-01-13T16:41:50.053Z,99086.50
2023-01-13T16:44:36.208Z,99094.13
2023-01-13T16:47:24.317Z,99100.97
2023-01-13T16:50:28.938Z,99090.69
2023-01-13T16:53:15.827Z,99102.47
2023-01-13T16:56:02.531Z,99099.69
2023-01-13T16:58:49.571Z,99108.19
2023-01-13T17:01:39.728Z,99104.69
2023-01-13T17:04:26.137Z,99096.34
2023-01-13T17:07:16.630Z,99098.06
2023-01-13T17:10:03.727Z,99103.41
2023-01-13T17:12:50.948Z,99084.78
2023-01-13T17:15:38.760Z,99095.13
2023-01-13T17:18:24.887Z,99102.41
2023-01-13T17:21:12.123Z,99106.75
2023-01-13T17:23:59.366Z,99103.53
2023-01-13T17:26:50.362Z,99110.72
2023-01-13T17:29:36.679Z,99112.53
2023-01-13T17:32:23.303Z,99113.34
2023-01-13T17:35:12.821Z,99119.41
2023-01-13T17:37:59.109Z,99103.22
2023-01-13T17:40:45.315Z,99119.75
2023-01-13T17:43:32.221Z,99135.38
2023-01-13T17:46:19.843Z,99132.84
2023-01-13T17:49:06.585Z,99137.09
2023-01-13T17:51:53.296Z,99151.00
2023-01-13T17:54:43.001Z,99152.59
2023-01-13T17:57:29.481Z,99158.59
2023-01-13T18:00:16.519Z,99155.06
2023-01-13T18:03:03.068Z,99164.41
2023-01-13T18:05:49.630Z,99163.41
2023-01-13T18:08:36.252Z,99151.19
2023-01-13T18:11:23.206Z,99161.38
2023-01-13T18:14:10.676Z,99169.03
2023-01-13T18:16:57.137Z,99181.00
2023-01-13T18:20:02.188Z,99186.16
2023-01-13T18:23:07.297Z,99183.59
2023-01-13T18:26:15.839Z,99206.78
2023-01-13T18:29:18.057Z,99164.47
2023-01-13T18:32:17.018Z,99201.97
2023-01-13T18:35:44.468Z,99202.75
2023-01-13T18:38:31.271Z,99200.22
2023-01-13T18:41:35.950Z,99207.09
2023-01-13T18:44:22.189Z,99233.81
2023-01-13T18:47:08.824Z,99237.25
2023-01-13T18:49:56.939Z,99246.69
2023-01-13T18:52:46.555Z,99245.78
2023-01-13T18:55:32.867Z,99247.34
2023-01-13T19:05:52.215Z,99267.25
2023-01-13T19:08:38.524Z,99271.28
2023-01-13T19:11:25.250Z,99267.84
2023-01-13T19:14:13.441Z,99276.47
2023-01-13T19:17:10.965Z,99269.75
2023-01-13T19:19:58.332Z,99276.94
2023-01-13T19:22:46.190Z,99259.84
2023-01-13T19:25:32.757Z,99283.25
2023-01-13T19:28:19.097Z,99291.84
2023-01-13T19:31:07.692Z,99301.53
2023-01-13T19:33:54.070Z,99304.19
2023-01-13T19:36:40.796Z,99317.97
2023-01-13T19:39:27.378Z,99326.53
2023-01-13T19:42:33.058Z,99335.19
2023-01-13T19:45:33.849Z,99337.78
2023-01-13T19:48:21.268Z,99342.91
2023-01-13T19:51:07.846Z,99349.03
2023-01-13T19:53:53.971Z,99343.72
2023-01-13T19:56:40.530Z,99345.50
2023-01-13T19:59:29.874Z,99361.00
2023-01-13T20:02:28.047Z,99344.56
2023-01-13T20:05:25.024Z,99352.97
2023-01-13T20:08:11.677Z,99331.16
2023-01-13T20:11:18.427Z,99349.09
2023-01-13T20:14:04.926Z,99346.19
2023-01-13T20:16:51.696Z,99356.34
2023-01-13T20:19:41.684Z,99356.28
2023-01-13T20:22:28.259Z,99334.66
2023-01-13T20:25:30.121Z,99345.75
2023-01-13T20:28:16.925Z,99356.03
2023-01-13T20:31:11.126Z,99353.19
2023-01-13T20:33:57.418Z,99363.41
2023-01-13T20:36:44.126Z,99359.81
2023-01-13T20:39:31.255Z,99361.63
2023-01-13T20:42:29.953Z,99365.03
2023-01-13T20:45:23.876Z,99375.25
2023-01-13T20:48:10.352Z,99379.59
2023-01-13T20:50:59.411Z,99376.06
2023-01-13T20:53:49.112Z,99365.19
2023-01-13T20:56:36.411Z,99359.91
2023-01-13T20:59:23.214Z,99367.84
2023-01-13T21:02:14.798Z,99381.56
2023-01-13T21:05:01.313Z,99366.84
2023-01-13T21:07:48.288Z,99382.31
2023-01-13T21:10:34.868Z,99374.00
2023-01-13T21:13:39.680Z,99374.72
2023-01-13T21:16:26.196Z,99371.34
2023-01-13T21:19:12.625Z,99373.13
2023-01-13T21:21:59.332Z,99380.56
2023-01-13T21:24:45.836Z,99371.84
2023-01-13T21:27:32.786Z,99383.72
2023-01-13T21:30:19.186Z,99378.19
2023-01-13T21:33:06.228Z,99383.34
2023-01-13T21:35:52.625Z,99398.56
2023-01-13T21:38:39.424Z,99401.31
2023-01-13T21:41:45.631Z,99413.38
2023-01-13T21:44:50.720Z,99410.72
2023-01-13T21:47:49.470Z,99424.53
2023-01-13T21:50:37.916Z,99435.78
2023-01-13T21:53:24.748Z,99423.03
2023-01-13T21:56:11.214Z,99439.53
2023-01-13T21:58:58.083Z,99444.06
2023-01-13T22:02:22.328Z,99463.97
2023-01-13T22:04:50.950Z,99459.09
2023-01-13T22:07:39.808Z,99464.34
2023-01-13T22:10:29.925Z,99456.78
2023-01-13T22:13:34.595Z,99449.09
2023-01-13T22:16:21.227Z,99449.97
2023-01-13T22:19:09.338Z,99418.72
2023-01-13T22:21:56.804Z,99455.31
2023-01-13T22:24:43.714Z,99445.88
2023-01-13T22:27:30.873Z,99451.94
2023-01-13T22:30:21.607Z,99451.94
2023-01-13T22:33:08.013Z,99444.28
2023-01-13T22:35:55.980Z,99445.94
2023-01-13T22:38:42.409Z,99447.53
2023-01-13T22:41:28.752Z,99434.28
2023-01-13T22:44:15.418Z,99440.06
2023-01-13T22:47:02.107Z,99453.56
2023-01-13T22:49:49.036Z,99444.06
2023-01-13T22:52:35.565Z,99448.16
2023-01-13T22:55:23.439Z,99405.44
2023-01-13T22:58:11.903Z,99441.72
2023-01-13T23:01:17.560Z,99449.00
2023-01-13T23:04:04.853Z,99450.75
2023-01-13T23:06:51.470Z,99446.34
2023-01-13T23:09:37.735Z,99465.22
2023-01-13T23:12:24.241Z,99456.81
2023-01-13T23:15:11.334Z,99452.69
2023-01-13T23:17:57.941Z,99443.22
2023-01-13T23:20:44.294Z,99448.53
2023-01-13T23:23:31.410Z,99468.25
2023-01-13T23:26:23.342Z,99460.31
2023-01-13T23:29:13.127Z,99459.31
2023-01-13T23:31:59.748Z,99453.63
2023-01-13T23:34:46.862Z,99467.03
2023-01-13T23:37:34.410Z,99459.28
2023-01-13T23:40:20.945Z,99456.47
2023-01-13T23:43:07.629Z,99449.44
2023-01-13T23:46:05.305Z,99445.25
2023-01-13T23:48:52.033Z,99445.84
2023-01-13T23:51:38.465Z,99435.91
2023-01-13T23:54:25.079Z,99446.22
2023-01-13T23:57:11.333Z,99434.06
2023-01-13T23:59:57.615Z,99438.19
